Time;durP1;ratioP1;P1;durP2;ratioP2;P2;SDS_P1;SDS_P2;PMS_P1;PMS_P2;Temp;Humidity;BMP_temperature;BMP_pressure;BME280_temperature;BME280_humidity;BME280_pressure;Samples;Min_cycle;Max_cycle;Signal;HPM_P1;HPM_P2
2024/02/08 00:01:06;;;;;;;10.07;3.72;;;2.20;99.90;;;;;;5055238;28;20045;-59
2024/02/08 00:03:31;;;;;;;11.98;4.10;;;2.20;99.90;;;;;;5032855;28;20115;-58
2024/02/08 00:05:57;;;;;;;13.30;4.00;;;2.20;99.90;;;;;;5057422;28;20045;-59
2024/02/08 00:08:23;;;;;;;11.70;4.47;;;2.20;99.90;;;;;;5050370;28;20455;-66
2024/02/08 00:10:48;;;;;;;13.27;4.10;;;2.10;99.90;;;;;;5051180;28;20508;-56
2024/02/08 00:13:14;;;;;;;12.05;4.18;;;2.20;99.90;;;;;;5051123;28;20123;-56
2024/02/08 00:15:41;;;;;;;14.32;4.55;;;2.10;99.90;;;;;;5049877;28;20048;-56
2024/02/08 00:18:07;;;;;;;10.48;4.40;;;2.10;99.90;;;;;;5050303;28;20041;-56
2024/02/08 00:20:33;;;;;;;13.25;4.30;;;2.10;99.90;;;;;;5049921;28;20052;-58
2024/02/08 00:22:59;;;;;;;10.90;4.05;;;2.10;99.90;;;;;;5048796;28;20129;-56
2024/02/08 00:25:25;;;;;;;14.75;4.75;;;2.10;99.90;;;;;;5048108;28;20068;-58
2024/02/08 00:27:53;;;;;;;14.90;5.07;;;2.10;99.90;;;;;;5032309;28;20110;-57
2024/02/08 00:30:19;;;;;;;11.77;4.50;;;2.10;99.90;;;;;;5050660;28;20040;-56
2024/02/08 00:32:46;;;;;;;11.27;4.63;;;2.10;99.90;;;;;;5049426;28;20033;-56
2024/02/08 00:35:22;;;;;;;11.77;4.53;;;2.10;99.90;;;;;;5047164;28;20080;-60
2024/02/08 00:37:48;;;;;;;10.30;3.80;;;2.10;99.90;;;;;;5051272;28;20041;-54
2024/02/08 00:40:17;;;;;;;9.52;3.80;;;2.10;99.90;;;;;;5049307;28;20491;-61
2024/02/08 00:42:45;;;;;;;18.23;4.53;;;2.10;99.90;;;;;;5048680;28;20072;-56
2024/02/08 00:45:12;;;;;;;12.43;4.07;;;2.10;99.90;;;;;;5047382;28;20048;-56
2024/02/08 00:47:38;;;;;;;11.32;4.38;;;2.10;99.90;;;;;;5049144;28;20116;-56
2024/02/08 00:50:05;;;;;;;16.02;3.75;;;2.10;99.90;;;;;;5048648;28;20112;-56
2024/02/08 00:52:33;;;;;;;11.80;3.92;;;2.10;99.90;;;;;;5050515;28;20044;-56
2024/02/08 00:54:59;;;;;;;16.42;3.95;;;2.10;99.90;;;;;;5048245;28;20045;-59
2024/02/08 00:57:29;;;;;;;12.50;3.58;;;2.10;99.90;;;;;;5039039;28;20050;-55
2024/02/08 00:59:58;;;;;;;14.02;3.90;;;2.10;99.90;;;;;;5049887;28;20423;-61
2024/02/08 01:02:23;;;;;;;10.90;3.80;;;2.20;99.90;;;;;;5050189;28;20084;-55
2024/02/08 01:04:49;;;;;;;10.25;3.80;;;2.10;99.90;;;;;;5053744;28;20492;-59
2024/02/08 01:07:15;;;;;;;8.32;3.58;;;2.10;99.90;;;;;;5050549;28;20037;-61
2024/02/08 01:09:41;;;;;;;8.68;3.25;;;2.10;99.90;;;;;;5049438;28;20396;-63
2024/02/08 01:12:06;;;;;;;11.75;3.85;;;2.10;99.90;;;;;;5047092;28;20082;-56
2024/02/08 01:14:32;;;;;;;9.48;3.60;;;2.10;99.90;;;;;;5046148;28;20041;-55
2024/02/08 01:16:58;;;;;;;9.77;3.63;;;1.90;99.90;;;;;;5046992;28;20029;-57
2024/02/08 01:19:25;;;;;;;11.05;3.63;;;2.10;99.90;;;;;;5015598;28;20041;-65
2024/02/08 01:21:51;;;;;;;11.63;3.83;;;2.10;99.90;;;;;;5050163;28;20253;-56
2024/02/08 01:24:20;;;;;;;10.82;3.35;;;2.10;99.90;;;;;;5044323;28;20041;-56
2024/02/08 01:26:47;;;;;;;12.57;4.00;;;2.10;99.90;;;;;;5047927;28;20033;-60
2024/02/08 01:29:13;;;;;;;9.18;3.40;;;2.10;99.90;;;;;;5049195;28;20094;-56
2024/02/08 01:31:39;;;;;;;15.30;4.05;;;2.10;99.90;;;;;;5049845;28;20037;-61
2024/02/08 01:34:07;;;;;;;10.18;3.95;;;2.10;99.90;;;;;;5029471;28;20035;-62
2024/02/08 01:36:35;;;;;;;11.68;3.88;;;2.10;99.90;;;;;;5047641;28;20047;-61
2024/02/08 01:39:07;;;;;;;10.02;3.70;;;2.10;99.90;;;;;;5047481;28;20041;-61
2024/02/08 01:41:34;;;;;;;12.38;3.78;;;2.20;99.90;;;;;;5052774;28;20037;-61
2024/02/08 01:44:04;;;;;;;15.63;3.85;;;2.20;99.90;;;;;;5057564;28;20044;-59
2024/02/08 01:46:38;;;;;;;8.70;3.95;;;2.20;99.90;;;;;;5049421;28;20116;-62
2024/02/08 01:49:09;;;;;;;9.23;4.05;;;2.20;99.90;;;;;;5053570;28;20041;-62
2024/02/08 01:51:38;;;;;;;13.00;4.20;;;2.20;99.90;;;;;;5052438;28;20514;-61
2024/02/08 01:54:05;;;;;;;13.85;4.15;;;2.20;99.90;;;;;;5052053;28;20033;-61
2024/02/08 01:56:31;;;;;;;10.85;4.30;;;2.20;99.90;;;;;;5053227;28;20041;-61
2024/02/08 01:59:00;;;;;;;16.88;4.90;;;2.20;99.90;;;;;;5052786;28;20510;-61
2024/02/08 02:01:26;;;;;;;11.95;4.95;;;2.20;99.90;;;;;;5062451;28;20032;-62
2024/02/08 02:03:52;;;;;;;17.00;5.20;;;2.20;99.90;;;;;;5052498;28;20747;-62
2024/02/08 02:06:18;;;;;;;16.35;4.60;;;2.20;99.90;;;;;;5055375;28;20037;-62
2024/02/08 02:08:53;;;;;;;14.13;4.47;;;2.20;99.90;;;;;;5052464;28;20681;-62
2024/02/08 02:11:41;;;;;;;14.18;4.45;;;2.30;99.90;;;;;;5052146;28;20079;-61
2024/02/08 02:14:09;;;;;;;11.10;4.68;;;2.30;99.90;;;;;;5052467;28;20124;-61
2024/02/08 02:16:35;;;;;;;16.17;5.03;;;2.30;99.90;;;;;;5048602;28;20079;-59
2024/02/08 02:19:03;;;;;;;15.63;5.20;;;2.30;99.90;;;;;;5050874;28;20044;-59
2024/02/08 02:21:29;;;;;;;13.15;4.03;;;2.30;99.90;;;;;;5055805;28;20518;-62
2024/02/08 02:23:55;;;;;;;14.10;4.55;;;2.30;99.90;;;;;;5046618;28;20596;-61
2024/02/08 02:26:20;;;;;;;11.85;4.50;;;2.30;99.90;;;;;;5052677;28;20032;-62
2024/02/08 02:28:47;;;;;;;11.75;4.25;;;2.30;99.90;;;;;;5050774;28;20051;-62
2024/02/08 02:31:16;;;;;;;16.30;4.45;;;2.30;99.90;;;;;;5050122;28;20037;-62
2024/02/08 02:33:44;;;;;;;12.32;3.70;;;2.30;99.90;;;;;;5052124;28;20108;-62
2024/02/08 02:36:12;;;;;;;11.82;4.18;;;2.30;99.90;;;;;;5045071;28;20464;-61
2024/02/08 02:38:41;;;;;;;12.63;4.15;;;2.30;99.90;;;;;;5051572;28;20045;-61
2024/02/08 02:41:07;;;;;;;11.55;4.05;;;2.30;99.90;;;;;;5052110;28;20041;-62
2024/02/08 02:43:34;;;;;;;9.93;3.67;;;2.30;99.90;;;;;;5051499;28;20040;-62
2024/02/08 02:46:00;;;;;;;10.30;4.10;;;2.30;99.90;;;;;;5049748;28;20036;-61
2024/02/08 02:48:25;;;;;;;9.98;3.63;;;2.20;99.90;;;;;;5051025;28;20034;-59
2024/02/08 02:50:51;;;;;;;11.10;4.00;;;2.20;99.90;;;;;;5047812;28;20037;-62
2024/02/08 02:53:18;;;;;;;13.35;4.07;;;2.20;99.90;;;;;;5051672;28;20090;-57
2024/02/08 02:55:44;;;;;;;11.20;4.68;;;2.20;99.90;;;;;;5047894;28;20045;-59
2024/02/08 02:58:12;;;;;;;9.25;3.38;;;2.10;99.90;;;;;;5051174;28;20044;-62
2024/02/08 03:00:38;;;;;;;11.88;3.33;;;2.10;99.90;;;;;;5051530;28;20142;-62
2024/02/08 03:03:12;;;;;;;8.73;3.70;;;2.10;99.90;;;;;;5045292;28;20029;-60
2024/02/08 03:05:39;;;;;;;14.57;4.25;;;2.10;99.90;;;;;;5051593;28;20067;-62
2024/02/08 03:08:05;;;;;;;10.80;3.88;;;2.10;99.90;;;;;;5053187;28;20559;-61
2024/02/08 03:10:32;;;;;;;10.20;4.10;;;2.00;99.90;;;;;;5055859;28;20116;-62
2024/02/08 03:12:58;;;;;;;10.98;3.60;;;2.00;99.90;;;;;;5060319;28;20115;-61
2024/02/08 03:15:24;;;;;;;14.40;4.00;;;2.00;99.90;;;;;;5048195;28;20563;-58
2024/02/08 03:17:49;;;;;;;8.85;3.47;;;2.00;99.90;;;;;;5048053;28;20487;-62
2024/02/08 03:20:29;;;;;;;13.93;4.72;;;2.00;99.90;;;;;;5051052;28;20045;-61
2024/02/08 03:22:56;;;;;;;11.80;4.30;;;1.90;99.90;;;;;;5051526;28;20045;-61
2024/02/08 03:25:22;;;;;;;12.18;4.10;;;2.00;99.90;;;;;;5051030;28;20047;-62
2024/02/08 03:27:52;;;;;;;11.13;4.38;;;1.90;99.90;;;;;;5050594;28;20108;-61
2024/02/08 03:30:19;;;;;;;11.77;4.53;;;2.00;99.90;;;;;;5051313;28;20033;-62
2024/02/08 03:32:55;;;;;;;12.43;4.40;;;2.00;99.90;;;;;;5050348;28;20025;-60
2024/02/08 03:35:25;;;;;;;13.93;4.32;;;2.00;99.90;;;;;;5051137;28;20327;-62
2024/02/08 03:37:54;;;;;;;12.30;4.68;;;2.00;99.90;;;;;;5049324;28;20520;-61
2024/02/08 03:40:20;;;;;;;12.80;4.47;;;1.90;99.90;;;;;;5050581;28;20047;-62
2024/02/08 03:42:49;;;;;;;11.65;4.53;;;2.00;99.90;;;;;;5050522;28;20056;-61
2024/02/08 03:45:17;;;;;;;13.55;4.93;;;2.00;99.90;;;;;;5040547;28;20084;-60
2024/02/08 03:47:44;;;;;;;8.73;4.13;;;2.10;99.90;;;;;;5049400;28;20041;-61
2024/02/08 03:50:11;;;;;;;16.52;5.22;;;2.10;99.90;;;;;;5050174;28;20455;-62
2024/02/08 03:52:37;;;;;;;12.50;4.72;;;2.10;99.90;;;;;;5050544;28;20036;-62
2024/02/08 03:55:13;;;;;;;9.90;4.30;;;2.10;99.90;;;;;;5048922;28;20044;-62
2024/02/08 03:57:38;;;;;;;11.32;4.13;;;2.20;99.90;;;;;;5049875;28;20036;-61
2024/02/08 04:00:07;;;;;;;11.90;4.20;;;2.20;99.90;;;;;;5045542;28;20047;-62
2024/02/08 04:02:35;;;;;;;12.15;4.40;;;2.20;99.90;;;;;;5044442;28;20050;-62
2024/02/08 04:05:06;;;;;;;10.20;4.10;;;2.20;99.90;;;;;;5050309;28;20041;-62
2024/02/08 04:10:23;;;;;;;17.20;5.32;;;2.20;99.90;;;;;;5046197;28;20049;-60
2024/02/08 04:53:58;;;;;;;15.40;5.38;;;2.30;99.90;;;;;;5043246;28;20404;-62
2024/02/08 04:56:24;;;;;;;15.50;5.10;;;2.30;99.90;;;;;;5042271;28;20041;-58
2024/02/08 04:58:50;;;;;;;13.57;4.60;;;2.30;99.90;;;;;;5049673;28;20048;-60
2024/02/08 05:01:17;;;;;;;12.80;4.75;;;2.30;99.90;;;;;;5045859;28;20029;-62
2024/02/08 05:03:43;;;;;;;9.73;4.28;;;2.30;99.90;;;;;;5047665;28;20079;-62
2024/02/08 05:06:11;;;;;;;10.40;4.35;;;2.30;99.90;;;;;;5049559;28;20090;-63
2024/02/08 05:08:41;;;;;;;11.30;4.35;;;2.30;99.90;;;;;;5049870;28;20047;-62
2024/02/08 05:11:09;;;;;;;8.50;4.30;;;2.30;99.90;;;;;;5046862;28;20033;-62
2024/02/08 05:13:39;;;;;;;9.52;4.65;;;2.30;99.90;;;;;;5057042;28;20048;-62
2024/02/08 05:16:06;;;;;;;9.43;4.22;;;2.30;99.90;;;;;;5047245;28;20089;-62
2024/02/08 05:18:32;;;;;;;10.90;4.15;;;3.30;99.90;;;;;;5052310;28;20059;-59
2024/02/08 05:20:57;;;;;;;9.98;4.47;;;2.40;99.90;;;;;;5053119;28;20513;-62
2024/02/08 05:23:27;;;;;;;10.10;4.70;;;2.40;99.90;;;;;;5049332;28;20048;-62
2024/02/08 05:25:52;;;;;;;10.82;4.25;;;2.40;99.90;;;;;;5046618;28;20033;-62
2024/02/08 05:28:18;;;;;;;9.57;5.28;;;2.40;99.90;;;;;;5050869;28;20582;-60
2024/02/08 05:30:47;;;;;;;11.10;5.18;;;2.40;99.90;;;;;;5054671;28;20036;-59
2024/02/08 05:33:12;;;;;;;12.35;4.90;;;2.40;99.90;;;;;;5053549;28;20044;-61
2024/02/08 05:35:39;;;;;;;10.75;5.43;;;2.40;99.90;;;;;;5055530;28;20504;-62
2024/02/08 05:38:05;;;;;;;12.20;5.68;;;2.40;99.90;;;;;;5047581;28;20202;-61
2024/02/08 05:40:31;;;;;;;15.27;5.60;;;2.40;99.90;;;;;;5053498;28;20049;-61
2024/02/08 05:42:59;;;;;;;10.73;5.18;;;2.40;99.90;;;;;;5053658;28;20044;-61
2024/02/08 05:45:30;;;;;;;14.88;5.82;;;2.40;99.90;;;;;;5056274;28;20648;-62
2024/02/08 05:48:05;;;;;;;13.27;5.50;;;2.40;99.90;;;;;;5052972;28;20063;-62
2024/02/08 05:50:33;;;;;;;12.35;5.90;;;2.40;99.90;;;;;;5049616;28;20039;-62
2024/02/08 05:52:58;;;;;;;15.95;6.13;;;2.40;99.90;;;;;;5046719;28;20029;-62
2024/02/08 05:55:27;;;;;;;15.60;5.72;;;2.40;99.90;;;;;;5052702;28;20039;-58
2024/02/08 05:57:53;;;;;;;12.35;5.68;;;2.50;99.90;;;;;;5047453;28;20117;-62
2024/02/08 06:00:45;;;;;;;12.93;6.03;;;2.50;99.90;;;;;;5041577;28;20466;-59
2024/02/08 06:03:17;;;;;;;13.68;5.82;;;2.50;99.90;;;;;;5043081;28;20149;-62
2024/02/08 06:05:45;;;;;;;;;;;2.50;99.90;;;;;;5052317;28;20036;-61
2024/02/08 06:08:25;;;;;;;9.85;5.65;;;2.50;99.90;;;;;;5057398;28;19925;-62
2024/02/08 06:10:52;;;;;;;13.93;6.72;;;2.50;99.90;;;;;;5049796;28;20029;-62
2024/02/08 06:13:22;;;;;;;11.30;5.95;;;2.50;99.90;;;;;;5045662;28;20079;-62
2024/02/08 06:15:50;;;;;;;12.65;6.03;;;2.50;99.90;;;;;;5048076;28;20492;-58
2024/02/08 06:18:24;;;;;;;12.13;6.30;;;2.50;99.90;;;;;;5050277;28;20480;-62
2024/02/08 06:20:59;;;;;;;14.35;6.25;;;2.50;99.90;;;;;;5053951;28;20461;-62
2024/02/08 06:23:34;;;;;;;12.38;6.25;;;2.60;99.90;;;;;;5049091;28;20048;-62
2024/02/08 06:28:55;;;;;;;11.50;5.32;;;2.50;99.90;;;;;;5045615;28;20394;-62
2024/02/08 06:31:29;;;;;;;14.77;5.97;;;1.60;99.90;;;;;;5047770;28;20454;-62
2024/02/08 06:34:18;;;;;;;12.90;5.95;;;2.50;99.90;;;;;;5051352;28;20441;-62
2024/02/08 06:36:58;;;;;;;13.52;5.72;;;2.60;99.90;;;;;;5050756;28;20053;-62
2024/02/08 06:39:28;;;;;;;16.23;6.18;;;2.60;99.90;;;;;;5048424;28;20049;-62
2024/02/08 06:42:23;;;;;;;15.52;6.30;;;2.60;99.90;;;;;;5046788;28;20037;-62
2024/02/08 06:44:42;;;;;;;17.17;6.35;;;2.60;99.90;;;;;;5049632;28;20107;-62
2024/02/08 07:41:56;;;;;;;16.50;5.80;;;2.80;99.90;;;;;;5047739;28;20048;-63
2024/02/08 07:44:23;;;;;;;17.58;6.03;;;2.80;99.90;;;;;;5046737;28;20714;-62
2024/02/08 07:46:55;;;;;;;14.57;6.00;;;2.80;99.90;;;;;;5049205;28;20067;-62
2024/02/08 07:49:41;;;;;;;18.83;5.50;;;2.80;99.90;;;;;;5055860;28;20040;-61
2024/02/08 07:52:14;;;;;;;18.08;5.55;;;2.90;99.90;;;;;;5047209;28;20044;-62
2024/02/08 07:54:42;;;;;;;14.18;5.30;;;2.90;99.90;;;;;;5052787;28;20107;-62
2024/02/08 07:57:11;;;;;;;16.63;6.00;;;2.90;99.90;;;;;;5058638;28;20040;-62
2024/02/08 07:59:39;;;;;;;18.52;5.80;;;2.90;99.90;;;;;;5054061;28;20083;-62
2024/02/08 08:02:12;;;;;;;13.90;5.32;;;2.90;99.90;;;;;;5052281;28;20037;-62
2024/02/08 08:04:51;;;;;;;17.88;6.00;;;3.00;99.90;;;;;;5053950;28;20033;-62
2024/02/08 08:07:23;;;;;;;19.33;6.20;;;3.00;99.90;;;;;;5051264;28;20091;-60
2024/02/08 08:09:59;;;;;;;15.70;5.80;;;3.00;99.90;;;;;;5062515;28;20036;-60
2024/02/08 08:12:29;;;;;;;20.20;6.38;;;3.00;99.90;;;;;;5055289;28;20036;-61
2024/02/08 08:19:52;;;;;;;15.45;6.07;;;3.10;99.90;;;;;;5040206;28;20440;-60
2024/02/08 08:22:18;;;;;;;20.80;6.75;;;3.30;99.90;;;;;;5052532;28;20072;-60
2024/02/08 08:27:33;;;;;;;15.32;6.75;;;3.10;99.90;;;;;;5051470;28;20048;-60
2024/02/08 08:29:59;;;;;;;17.90;6.15;;;3.10;99.90;;;;;;5055189;28;20032;-60
2024/02/08 08:37:45;;;;;;;19.52;6.30;;;3.20;99.90;;;;;;5056684;28;20040;-60
2024/02/08 08:40:23;;;;;;;22.15;6.55;;;3.20;99.90;;;;;;5049870;28;20043;-60
2024/02/08 08:42:54;;;;;;;16.38;6.38;;;3.20;99.90;;;;;;5047327;28;20037;-59
2024/02/08 08:45:20;;;;;;;17.77;6.65;;;3.20;99.90;;;;;;5046025;28;20539;-60
2024/02/08 08:48:00;;;;;;;13.35;5.80;;;3.20;99.90;;;;;;5049556;28;20029;-60
2024/02/08 08:50:31;;;;;;;17.75;6.25;;;3.30;99.90;;;;;;5052239;28;20041;-61
2024/02/08 08:53:19;;;;;;;18.73;5.68;;;3.30;99.90;;;;;;5046721;28;20060;-61
2024/02/08 08:55:49;;;;;;;17.35;6.50;;;3.40;99.90;;;;;;5050169;28;20040;-60
2024/02/08 08:58:22;;;;;;;23.05;6.05;;;3.40;99.90;;;;;;5056873;28;20044;-60
2024/02/08 09:00:58;;;;;;;;;;;3.50;99.90;;;;;;5054391;28;20492;-60
2024/02/08 09:03:27;;;;;;;16.30;5.65;;;2.80;99.90;;;;;;5046028;28;20299;-60
2024/02/08 09:06:02;;;;;;;16.27;5.68;;;3.60;99.90;;;;;;5053909;28;20524;-60
2024/02/08 09:08:42;;;;;;;19.30;5.45;;;3.60;99.90;;;;;;5053955;28;20037;-60
2024/02/08 09:11:12;;;;;;;17.02;6.65;;;3.60;99.90;;;;;;5056987;28;20041;-60
2024/02/08 09:13:44;;;;;;;19.05;6.53;;;3.70;99.90;;;;;;5065711;28;20051;-60
2024/02/08 09:21:27;;;;;;;18.30;8.20;;;3.80;99.90;;;;;;5045750;28;20045;-60
2024/02/08 09:23:53;;;;;;;33.88;15.35;;;3.90;99.90;;;;;;5051887;28;20032;-61
2024/02/08 09:26:24;;;;;;;58.75;34.40;;;3.90;99.90;;;;;;5049732;28;20029;-60
2024/02/08 09:28:52;;;;;;;54.67;27.05;;;3.90;99.90;;;;;;5057657;28;20412;-61
2024/02/08 09:31:18;;;;;;;31.05;17.55;;;4.00;99.90;;;;;;5040632;28;20044;-61
2024/02/08 09:33:44;;;;;;;47.70;23.33;;;4.00;99.90;;;;;;5061567;28;20119;-61
2024/02/08 09:36:14;;;;;;;39.83;17.17;;;4.10;99.90;;;;;;5046762;28;20056;-61
2024/02/08 09:38:44;;;;;;;22.60;9.55;;;4.10;99.90;;;;;;5048208;28;20033;-61
2024/02/08 09:41:23;;;;;;;22.15;6.88;;;4.10;99.90;;;;;;5052875;28;20045;-60
2024/02/08 09:43:56;;;;;;;17.88;6.70;;;4.10;99.90;;;;;;5039859;28;20157;-60
2024/02/08 09:49:17;;;;;;;16.25;8.65;;;4.10;99.90;;;;;;5054248;28;20123;-60
2024/02/08 09:51:55;;;;;;;16.15;8.30;;;4.20;99.90;;;;;;5052240;28;20044;-60
2024/02/08 09:54:28;;;;;;;18.77;7.80;;;4.20;99.90;;;;;;5058793;28;20496;-60
2024/02/08 09:57:02;;;;;;;22.08;6.70;;;4.30;99.90;;;;;;5052324;28;20041;-60
2024/02/08 09:59:59;;;;;;;17.60;6.50;;;4.30;99.90;;;;;;5059228;28;20112;-60
2024/02/08 10:02:32;;;;;;;19.60;6.07;;;4.30;99.90;;;;;;5045471;28;20037;-60
2024/02/08 10:05:18;;;;;;;20.02;6.95;;;4.40;99.90;;;;;;5052976;28;20041;-61
2024/02/08 10:08:02;;;;;;;15.30;5.00;;;4.40;99.90;;;;;;5044144;28;20044;-60
2024/02/08 10:10:29;;;;;;;17.80;6.40;;;4.40;99.90;;;;;;5058590;28;20041;-60
2024/02/08 10:13:05;;;;;;;16.15;5.22;;;4.40;99.90;;;;;;5052766;28;20107;-59
2024/02/08 10:15:39;;;;;;;19.38;5.85;;;4.50;99.90;;;;;;5061226;28;20041;-60
2024/02/08 10:18:10;;;;;;;16.75;6.70;;;4.50;99.90;;;;;;5053874;28;20120;-61
2024/02/08 10:20:47;;;;;;;16.83;6.32;;;4.50;99.90;;;;;;5055933;28;20095;-60
2024/02/08 10:23:33;;;;;;;12.90;4.90;;;4.50;99.90;;;;;;5049554;28;20043;-60
2024/02/08 10:28:53;;;;;;;14.05;5.18;;;4.60;99.90;;;;;;5068782;28;20052;-61
2024/02/08 10:31:24;;;;;;;12.40;4.70;;;4.60;99.90;;;;;;5048878;28;20045;-60
2024/02/08 10:33:57;;;;;;;12.13;5.45;;;4.60;99.90;;;;;;5049520;28;20404;-61
2024/02/08 10:36:31;;;;;;;18.20;5.97;;;4.60;99.90;;;;;;5056747;28;20053;-61
2024/02/08 10:39:07;;;;;;;15.40;5.20;;;4.70;99.90;;;;;;5044433;28;20448;-61
2024/02/08 10:44:05;;;;;;;18.23;5.10;;;4.70;99.90;;;;;;5061751;28;20041;-60
2024/02/08 10:46:32;;;;;;;13.10;5.40;;;4.70;99.90;;;;;;5059695;28;20520;-61
2024/02/08 10:49:02;;;;;;;16.27;4.72;;;4.70;99.90;;;;;;5058479;28;20049;-61
2024/02/08 10:51:33;;;;;;;22.23;5.55;;;4.70;99.90;;;;;;5053549;28;20073;-60
2024/02/08 10:54:05;;;;;;;21.25;5.28;;;4.80;99.90;;;;;;5056859;28;20094;-61
2024/02/08 10:57:39;;;;;;;15.05;4.35;;;4.70;99.90;;;;;;5054070;28;20627;-60
2024/02/08 10:59:39;;;;;;;18.67;4.70;;;4.80;99.90;;;;;;5042110;28;20045;-60
2024/02/08 11:02:08;;;;;;;15.77;4.05;;;4.70;99.90;;;;;;5045940;28;20041;-60
2024/02/08 11:04:40;;;;;;;12.20;4.13;;;4.80;99.90;;;;;;5052210;28;20041;-60
2024/02/08 11:07:18;;;;;;;13.75;4.47;;;4.80;99.90;;;;;;5047601;28;20051;-60
2024/02/08 11:09:44;;;;;;;17.50;6.03;;;4.80;99.90;;;;;;5044478;28;20033;-61
2024/02/08 11:12:29;;;;;;;14.82;4.97;;;4.80;99.90;;;;;;5049739;28;20045;-60
2024/02/08 11:15:01;;;;;;;15.27;4.70;;;4.80;99.90;;;;;;5048665;28;20047;-60
2024/02/08 11:17:32;;;;;;;12.93;4.68;;;4.80;99.90;;;;;;5056025;28;20044;-60
2024/02/08 11:19:58;;;;;;;22.20;7.82;;;4.80;99.90;;;;;;5054069;28;20029;-60
2024/02/08 11:22:42;;;;;;;19.50;8.55;;;4.90;99.90;;;;;;5055922;28;20460;-60
2024/02/08 11:25:19;;;;;;;21.00;7.40;;;4.90;99.90;;;;;;5059550;28;20262;-60
2024/02/08 11:27:51;;;;;;;19.88;8.57;;;4.80;99.90;;;;;;5053328;28;20102;-60
2024/02/08 11:30:39;;;;;;;27.40;15.82;;;4.80;99.90;;;;;;5046714;28;20036;-60
2024/02/08 11:33:12;;;;;;;25.40;12.48;;;4.90;99.90;;;;;;5047134;28;20550;-59
2024/02/08 11:35:56;;;;;;;;;;;4.90;99.90;;;;;;5046341;28;20119;-60
2024/02/08 11:38:30;;;;;;;34.13;18.83;;;4.90;99.90;;;;;;5047775;28;19921;-60
2024/02/08 11:41:09;;;;;;;24.23;14.65;;;4.90;99.90;;;;;;5050414;28;20486;-59
2024/02/08 11:43:35;;;;;;;31.17;16.65;;;4.90;99.90;;;;;;5046062;28;20025;-59
2024/02/08 11:46:04;;;;;;;23.52;11.43;;;4.90;99.90;;;;;;5051053;28;20128;-59
2024/02/08 11:48:41;;;;;;;29.45;16.00;;;4.90;99.90;;;;;;5053532;28;20455;-59
2024/02/08 11:51:15;;;;;;;21.55;11.02;;;4.90;99.90;;;;;;5046127;28;20040;-58
2024/02/08 11:53:44;;;;;;;17.02;7.35;;;4.90;99.90;;;;;;5050336;28;20045;-59
2024/02/08 11:56:10;;;;;;;14.77;6.03;;;4.90;99.90;;;;;;5039004;28;20037;-59
2024/02/08 11:58:43;;;;;;;15.32;5.55;;;4.90;99.90;;;;;;5057247;28;20044;-60
2024/02/08 12:01:13;;;;;;;17.98;5.95;;;4.80;99.90;;;;;;5050877;28;20111;-60
2024/02/08 12:03:42;;;;;;;16.60;5.70;;;4.80;99.90;;;;;;5050402;28;20037;-58
2024/02/08 12:06:23;;;;;;;17.05;6.38;;;4.80;99.90;;;;;;5044423;28;20044;-59
2024/02/08 12:09:03;;;;;;;13.20;5.00;;;4.80;99.90;;;;;;5049173;28;20499;-59
2024/02/08 12:11:34;;;;;;;12.82;5.72;;;4.80;99.90;;;;;;5049033;28;20060;-59
2024/02/08 12:14:07;;;;;;;9.75;4.53;;;4.80;99.90;;;;;;5042968;28;20503;-59
2024/02/08 12:16:34;;;;;;;13.95;4.68;;;4.80;99.90;;;;;;5048002;28;20495;-60
2024/02/08 12:19:05;;;;;;;13.98;4.07;;;4.80;99.90;;;;;;5040463;28;20037;-59
2024/02/08 12:21:35;;;;;;;13.43;4.87;;;4.80;99.90;;;;;;5049511;28;20041;-59
2024/02/08 12:24:04;;;;;;;14.02;4.70;;;4.70;99.90;;;;;;5044112;28;20485;-60
2024/02/08 12:26:33;;;;;;;19.63;4.55;;;4.70;99.90;;;;;;5048291;28;20035;-60
2024/02/08 12:29:03;;;;;;;19.27;4.80;;;4.70;99.90;;;;;;5042895;28;20037;-59
2024/02/08 12:31:32;;;;;;;19.23;4.68;;;4.70;99.90;;;;;;5047785;28;20040;-59
2024/02/08 12:34:03;;;;;;;13.90;4.18;;;4.70;99.90;;;;;;5046055;28;20036;-59
2024/02/08 12:36:31;;;;;;;12.05;4.32;;;4.80;99.90;;;;;;5042659;28;20519;-60
2024/02/08 12:39:00;;;;;;;20.85;7.68;;;4.70;99.90;;;;;;5043249;28;20043;-60
2024/02/08 12:41:29;;;;;;;22.75;8.23;;;4.70;99.90;;;;;;5050258;28;20052;-60
2024/02/08 12:43:56;;;;;;;20.35;8.10;;;4.70;99.90;;;;;;5047620;28;20041;-60
2024/02/08 12:46:22;;;;;;;18.17;8.20;;;4.80;99.90;;;;;;5049770;28;20037;-60
2024/02/08 12:48:49;;;;;;;14.60;5.53;;;4.70;99.90;;;;;;5049308;28;20560;-59
2024/02/08 12:51:23;;;;;;;18.80;9.48;;;4.70;99.90;;;;;;5039960;28;20497;-60
2024/02/08 12:54:02;;;;;;;18.15;6.38;;;4.70;99.90;;;;;;5038026;28;20542;-59
2024/02/08 12:56:27;;;;;;;21.17;5.80;;;4.70;99.90;;;;;;5042755;28;20110;-59
2024/02/08 12:59:01;;;;;;;12.45;3.40;;;4.70;99.90;;;;;;5046447;28;20041;-59
2024/02/08 13:01:47;;;;;;;8.02;2.95;;;4.70;99.90;;;;;;5045378;28;20041;-60
2024/02/08 13:04:17;;;;;;;7.43;2.35;;;4.70;99.90;;;;;;5044142;28;20068;-60
2024/02/08 13:06:43;;;;;;;9.55;2.67;;;4.60;99.90;;;;;;5044696;28;20033;-61
2024/02/08 13:09:29;;;;;;;10.45;4.15;;;4.60;99.90;;;;;;5043966;28;20044;-61
2024/02/08 13:12:14;;;;;;;9.85;5.85;;;4.60;99.90;;;;;;5046301;28;20033;-61
2024/02/08 13:14:49;;;;;;;15.93;10.27;;;4.60;99.90;;;;;;5044251;28;20033;-61
2024/02/08 13:17:25;;;;;;;16.10;7.35;;;4.60;99.90;;;;;;5049272;28;20052;-61
2024/02/08 13:19:55;;;;;;;12.13;5.57;;;4.50;99.90;;;;;;5049388;28;20037;-61
2024/02/08 13:22:25;;;;;;;8.27;4.20;;;4.50;99.90;;;;;;5044346;28;20120;-61
2024/02/08 13:24:52;;;;;;;11.27;4.65;;;4.50;99.90;;;;;;5049337;28;20037;-61
2024/02/08 13:27:28;;;;;;;14.52;4.00;;;4.40;99.90;;;;;;5045633;28;20524;-61
2024/02/08 13:29:55;;;;;;;6.15;3.53;;;4.40;99.90;;;;;;5052880;28;20040;-61
2024/02/08 13:32:25;;;;;;;11.15;4.93;;;4.40;99.90;;;;;;5047918;28;20033;-61
2024/02/08 13:34:55;;;;;;;7.57;3.30;;;4.30;99.90;;;;;;5048771;28;20040;-61
2024/02/08 13:37:21;;;;;;;6.68;3.13;;;4.30;99.90;;;;;;5048714;28;20037;-61
2024/02/08 13:39:50;;;;;;;7.70;2.58;;;4.30;99.90;;;;;;5047799;28;20041;-61
2024/02/08 13:42:19;;;;;;;5.40;2.42;;;4.20;99.90;;;;;;5052407;28;20033;-59
2024/02/08 13:44:45;;;;;;;6.43;2.50;;;4.30;99.90;;;;;;5042951;28;20075;-60
2024/02/08 13:47:12;;;;;;;4.40;2.40;;;4.20;99.90;;;;;;5052542;28;20408;-62
2024/02/08 13:49:37;;;;;;;7.28;3.97;;;4.20;99.90;;;;;;5048480;28;20050;-63
2024/02/08 13:52:03;;;;;;;8.52;4.93;;;4.20;99.90;;;;;;5049032;28;20384;-59
2024/02/08 13:54:31;;;;;;;10.68;5.35;;;4.10;99.90;;;;;;5052983;28;20036;-61
2024/02/08 13:56:58;;;;;;;13.05;6.80;;;4.20;99.90;;;;;;5049344;28;20049;-65
2024/02/08 13:59:25;;;;;;;11.32;6.55;;;4.10;99.90;;;;;;5041695;28;20036;-60
2024/02/08 14:01:52;;;;;;;12.65;7.25;;;4.10;99.90;;;;;;5052988;28;20052;-59
2024/02/08 14:04:22;;;;;;;16.45;8.20;;;4.10;99.90;;;;;;5053025;28;20052;-60
2024/02/08 14:06:55;;;;;;;8.38;5.40;;;4.10;99.90;;;;;;5050272;28;20559;-60
2024/02/08 14:09:24;;;;;;;10.52;4.30;;;4.00;99.90;;;;;;5051223;28;20073;-59
2024/02/08 14:11:55;;;;;;;11.52;6.45;;;4.00;99.90;;;;;;5051480;28;20502;-60
2024/02/08 14:14:29;;;;;;;10.00;6.20;;;3.90;99.90;;;;;;5062721;28;20048;-60
2024/02/08 14:16:56;;;;;;;18.08;15.48;;;3.90;99.90;;;;;;5050397;28;20052;-60
2024/02/08 14:19:36;;;;;;;20.88;16.23;;;3.80;99.90;;;;;;5051411;28;20486;-63
2024/02/08 14:22:07;;;;;;;24.20;19.05;;;3.80;99.90;;;;;;5043403;28;20073;-63
2024/02/08 14:24:39;;;;;;;13.48;9.55;;;3.70;99.90;;;;;;5042643;28;20047;-60
2024/02/08 14:27:10;;;;;;;14.83;9.07;;;3.70;99.90;;;;;;5041707;28;20559;-59
2024/02/08 14:29:36;;;;;;;9.02;5.30;;;3.60;99.90;;;;;;5047296;28;20100;-64
2024/02/08 14:32:08;;;;;;;11.43;6.65;;;3.60;99.90;;;;;;5047079;28;20040;-63
2024/02/08 14:34:36;;;;;;;10.88;4.70;;;3.60;99.90;;;;;;5048151;28;20037;-59
2024/02/08 14:37:06;;;;;;;8.32;3.63;;;3.50;99.90;;;;;;5053867;28;20046;-60
2024/02/08 14:39:33;;;;;;;10.63;6.05;;;3.50;99.90;;;;;;5047889;28;20091;-59
2024/02/08 14:42:17;;;;;;;15.50;9.85;;;3.50;99.90;;;;;;5044566;28;20047;-64
2024/02/08 14:44:44;;;;;;;11.10;6.85;;;3.40;99.90;;;;;;5042867;28;20037;-62
2024/02/08 14:47:25;;;;;;;10.32;5.88;;;3.40;99.90;;;;;;5054245;28;20466;-63
2024/02/08 14:49:59;;;;;;;7.35;4.35;;;3.40;99.90;;;;;;5051185;28;20045;-63
2024/02/08 14:52:34;;;;;;;9.10;3.83;;;3.30;99.90;;;;;;5046481;28;20041;-64
2024/02/08 14:55:19;;;;;;;5.40;2.83;;;3.30;99.90;;;;;;5043189;28;20116;-60
2024/02/08 14:57:52;;;;;;;9.82;5.25;;;3.30;99.90;;;;;;5050608;28;20060;-59
2024/02/08 15:03:08;;;;;;;22.55;15.75;;;3.20;99.90;;;;;;5051752;28;20049;-59
2024/02/08 15:05:40;;;;;;;18.95;15.18;;;3.20;99.90;;;;;;5054451;28;20052;-58
2024/02/08 15:10:47;;;;;;;7.28;4.28;;;3.10;99.90;;;;;;5050270;28;19917;-62
2024/02/08 15:13:18;;;;;;;9.13;4.45;;;3.10;99.90;;;;;;5051572;28;20416;-61
2024/02/08 15:15:50;;;;;;;6.80;4.30;;;3.10;99.90;;;;;;5052963;28;20103;-59
2024/02/08 15:18:30;;;;;;;7.00;3.83;;;3.40;99.90;;;;;;5049845;28;20386;-60